createdAt,value
2018-09-15T00:00:24.061Z,14.77
2018-09-15T00:01:23.996Z,14.80
2018-09-15T00:02:23.971Z,14.88
2018-09-15T00:03:23.971Z,14.84
2018-09-15T00:04:23.967Z,14.88
2018-09-15T00:05:23.941Z,14.83
2018-09-15T00:06:23.964Z,14.84
2018-09-15T00:07:23.912Z,14.81
2018-09-15T00:08:23.904Z,14.91
2018-09-15T00:09:23.908Z,14.80
2018-09-15T00:10:23.884Z,14.88
2018-09-15T00:11:23.871Z,14.88
2018-09-15T00:12:23.855Z,14.83
2018-09-15T00:13:23.856Z,14.94
2018-09-15T00:14:23.864Z,14.84
2018-09-15T00:15:23.823Z,14.95
2018-09-15T00:16:23.807Z,14.84
2018-09-15T00:17:23.818Z,14.83
2018-09-15T00:18:23.785Z,14.95
2018-09-15T00:19:23.775Z,14.89
2018-09-15T00:20:23.792Z,14.83
2018-09-15T00:21:23.744Z,14.91
2018-09-15T00:22:23.734Z,14.84
2018-09-15T00:23:23.756Z,14.80
2018-09-15T00:24:23.701Z,14.77
2018-09-15T00:25:23.725Z,14.84
2018-09-15T00:26:23.691Z,14.81
2018-09-15T00:27:23.699Z,14.81
2018-09-15T00:28:23.664Z,14.86
2018-09-15T00:29:23.652Z,14.80
2018-09-15T00:30:23.632Z,14.86
2018-09-15T00:31:23.622Z,14.80
2018-09-15T00:32:23.599Z,14.89
2018-09-15T00:33:23.598Z,14.94
2018-09-15T00:34:23.592Z,14.92
2018-09-15T00:35:23.569Z,14.89
2018-09-15T00:36:23.604Z,14.92
2018-09-15T00:37:23.545Z,14.92
2018-09-15T00:38:23.531Z,14.92
2018-09-15T00:39:23.524Z,14.84
2018-09-15T00:40:23.505Z,14.81
2018-09-15T00:41:23.495Z,14.77
2018-09-15T00:42:23.509Z,14.77
2018-09-15T00:43:23.478Z,14.73
2018-09-15T00:44:23.449Z,14.65
2018-09-15T00:45:23.443Z,14.61
2018-09-15T00:46:23.435Z,14.72
2018-09-15T00:47:23.445Z,14.62
2018-09-15T00:48:23.406Z,14.58
2018-09-15T00:49:23.398Z,14.57
2018-09-15T00:50:23.411Z,14.55
2018-09-15T00:51:23.367Z,14.62
2018-09-15T00:52:23.620Z,14.52
2018-09-15T00:53:23.351Z,14.50
2018-09-15T00:54:23.335Z,14.52
2018-09-15T00:55:23.325Z,14.50
2018-09-15T00:56:23.303Z,14.54
2018-09-15T00:57:23.285Z,14.45
2018-09-15T00:58:23.310Z,14.42
2018-09-15T00:59:23.326Z,14.51
2018-09-15T01:00:23.257Z,14.42
2018-09-15T01:01:23.245Z,14.37
2018-09-15T01:02:23.233Z,14.40
2018-09-15T01:03:23.220Z,14.42
2018-09-15T01:04:23.211Z,14.36
2018-09-15T01:05:23.257Z,14.45
2018-09-15T01:06:23.182Z,14.35
2018-09-15T01:07:23.165Z,14.29
2018-09-15T01:08:23.143Z,14.33
2018-09-15T01:09:23.140Z,14.43
2018-09-15T01:10:23.128Z,14.42
2018-09-15T01:11:23.122Z,14.47
2018-09-15T01:12:23.107Z,14.47
2018-09-15T01:13:23.090Z,14.50
2018-09-15T01:14:23.193Z,14.61
2018-09-15T01:15:23.071Z,14.60
2018-09-15T01:16:23.055Z,14.61
2018-09-15T01:17:23.032Z,14.60
2018-09-15T01:18:23.027Z,14.55
2018-09-15T01:19:23.004Z,14.54
2018-09-15T01:20:23.043Z,14.62
2018-09-15T01:21:22.991Z,14.50
2018-09-15T01:22:22.972Z,14.51
2018-09-15T01:23:22.970Z,14.62
2018-09-15T01:24:22.954Z,14.51
2018-09-15T01:25:23.006Z,14.43
2018-09-15T01:26:22.931Z,14.43
2018-09-15T01:27:22.912Z,14.45
2018-09-15T01:28:22.895Z,14.47
2018-09-15T01:29:22.888Z,14.54
2018-09-15T01:30:22.936Z,14.47
2018-09-15T01:31:22.866Z,14.43
2018-09-15T01:32:22.851Z,14.37
2018-09-15T01:33:22.843Z,14.43
2018-09-15T01:34:22.828Z,14.43
2018-09-15T01:35:22.802Z,14.37
2018-09-15T01:36:22.846Z,14.42
2018-09-15T01:37:22.781Z,14.42
2018-09-15T01:38:22.781Z,14.43
2018-09-15T01:39:22.759Z,14.42
2018-09-15T01:40:22.756Z,14.47
2018-09-15T01:41:22.796Z,14.40
2018-09-15T01:42:22.723Z,14.36
2018-09-15T01:43:22.715Z,14.35
2018-09-15T01:44:22.704Z,14.28
2018-09-15T01:45:22.685Z,14.37
2018-09-15T01:46:22.663Z,14.29
2018-09-15T01:47:22.674Z,14.36
2018-09-15T01:48:22.679Z,14.39
2018-09-15T01:49:22.633Z,14.27
2018-09-15T01:50:22.624Z,14.36
2018-09-15T01:51:22.597Z,14.36
2018-09-15T01:52:22.870Z,14.32
2018-09-15T01:53:22.590Z,14.35
2018-09-15T01:54:22.569Z,14.29
2018-09-15T01:55:22.558Z,14.35
2018-09-15T01:56:22.552Z,14.29
2018-09-15T01:57:22.589Z,14.32
2018-09-15T01:58:22.521Z,14.32
2018-09-15T01:59:22.510Z,14.36
2018-09-15T02:00:22.503Z,14.35
2018-09-15T02:01:22.480Z,14.32
2018-09-15T02:02:22.471Z,14.33
2018-09-15T02:03:22.481Z,14.29
2018-09-15T02:04:22.471Z,14.22
2018-09-15T02:05:22.430Z,14.20
2018-09-15T02:06:22.418Z,14.21
2018-09-15T02:07:22.410Z,14.14
2018-09-15T02:08:22.382Z,14.15
2018-09-15T02:09:22.403Z,14.17
2018-09-15T02:10:22.400Z,14.10
2018-09-15T02:11:22.347Z,14.07
2018-09-15T02:12:22.335Z,14.02
2018-09-15T02:13:22.326Z,13.97
2018-09-15T02:14:22.316Z,13.87
2018-09-15T02:15:22.307Z,13.82
2018-09-15T02:16:22.290Z,13.88
2018-09-15T02:17:22.290Z,13.85
2018-09-15T02:18:22.252Z,13.79
2018-09-15T02:19:22.243Z,13.87
2018-09-15T02:20:22.248Z,13.89
2018-09-15T02:21:22.256Z,13.91
2018-09-15T02:22:22.209Z,13.99
2018-09-15T02:23:22.193Z,13.92
2018-09-15T02:24:22.191Z,13.89
2018-09-15T02:25:22.205Z,13.88
2018-09-15T02:26:22.182Z,13.88
2018-09-15T02:27:22.134Z,13.75
2018-09-15T02:28:22.138Z,13.84
2018-09-15T02:29:22.120Z,13.87
2018-09-15T02:30:22.108Z,13.87
2018-09-15T02:31:22.134Z,13.88
2018-09-15T02:32:22.088Z,13.89
2018-09-15T02:33:22.078Z,13.73
2018-09-15T02:34:22.050Z,13.81
2018-09-15T02:35:22.052Z,13.84
2018-09-15T02:36:22.313Z,13.78
2018-09-15T02:37:22.022Z,13.67
2018-09-15T02:38:22.001Z,13.64
2018-09-15T02:39:21.983Z,13.67
2018-09-15T02:40:21.982Z,13.63
2018-09-15T02:41:21.967Z,13.63
2018-09-15T02:42:21.959Z,13.62
2018-09-15T02:43:21.969Z,13.71
2018-09-15T02:44:21.918Z,13.67
2018-09-15T02:45:21.905Z,13.66
2018-09-15T02:46:21.890Z,13.67
2018-09-15T02:47:21.920Z,13.66
2018-09-15T02:48:21.871Z,13.66
2018-09-15T02:49:21.861Z,13.73
2018-09-15T02:50:21.839Z,13.66
2018-09-15T02:51:22.117Z,13.77
2018-09-15T02:52:21.816Z,13.70
2018-09-15T02:53:21.809Z,13.73
2018-09-15T02:54:21.782Z,13.77
2018-09-15T02:55:21.777Z,13.75
2018-09-15T02:56:21.763Z,13.69
2018-09-15T02:57:21.834Z,13.71
2018-09-15T02:58:21.806Z,13.77
2018-09-15T02:59:21.719Z,13.70
2018-09-15T03:00:21.715Z,13.67
2018-09-15T03:01:21.706Z,13.77
2018-09-15T03:02:21.881Z,13.77
2018-09-15T03:03:21.862Z,13.70
2018-09-15T03:04:21.656Z,13.79
2018-09-15T03:05:21.648Z,13.66
2018-09-15T03:06:21.634Z,13.69
2018-09-15T03:07:21.643Z,13.71
2018-09-15T03:08:21.925Z,13.67
2018-09-15T03:09:21.598Z,13.66
2018-09-15T03:10:21.583Z,13.67
2018-09-15T03:11:21.560Z,13.64
2018-09-15T03:12:21.560Z,13.55
2018-09-15T03:13:21.541Z,13.55
2018-09-15T03:14:21.557Z,13.62
2018-09-15T03:15:21.511Z,13.62
2018-09-15T03:16:21.506Z,13.59
2018-09-15T03:17:21.477Z,13.57
2018-09-15T03:18:21.469Z,13.63
2018-09-15T03:19:21.484Z,13.52
2018-09-15T03:20:21.457Z,13.52
2018-09-15T03:21:21.435Z,13.55
2018-09-15T03:22:21.433Z,13.52
2018-09-15T03:23:21.412Z,13.51
2018-09-15T03:24:21.427Z,13.52
2018-09-15T03:25:21.381Z,13.49
2018-09-15T03:26:21.395Z,13.48
2018-09-15T03:27:21.345Z,13.51
2018-09-15T03:28:21.343Z,13.45
2018-09-15T03:29:21.355Z,13.49
2018-09-15T03:30:21.314Z,13.39
2018-09-15T03:31:21.332Z,13.48
2018-09-15T03:32:21.296Z,13.46
2018-09-15T03:33:21.277Z,13.45
2018-09-15T03:34:21.272Z,13.45
2018-09-15T03:35:21.237Z,13.49
2018-09-15T03:36:21.269Z,13.44
2018-09-15T03:37:21.228Z,13.42
2018-09-15T03:38:21.221Z,13.41
2018-09-15T03:39:21.223Z,13.39
2018-09-15T03:40:21.167Z,13.42
2018-09-15T03:41:21.180Z,13.42
2018-09-15T03:42:21.152Z,13.46
2018-09-15T03:43:21.161Z,13.41
2018-09-15T03:44:21.128Z,13.36
2018-09-15T03:45:21.117Z,13.39
2018-09-15T03:46:21.105Z,13.38
2018-09-15T03:47:21.091Z,13.41
2018-09-15T03:48:21.076Z,13.29
2018-09-15T03:49:21.061Z,13.26
2018-09-15T03:50:21.041Z,13.17
2018-09-15T03:51:21.059Z,13.23
2018-09-15T03:52:21.036Z,13.22
2018-09-15T03:53:21.004Z,13.22
2018-09-15T03:54:20.988Z,13.19
2018-09-15T03:55:20.968Z,13.11
2018-09-15T03:56:20.966Z,13.19
2018-09-15T03:57:20.961Z,13.15
2018-09-15T03:58:20.963Z,13.17
2018-09-15T03:59:20.917Z,13.08
2018-09-15T04:00:20.915Z,13.10
2018-09-15T04:01:20.908Z,13.08
2018-09-15T04:02:20.877Z,13.15
2018-09-15T04:03:20.943Z,13.22
2018-09-15T04:04:20.861Z,13.19
2018-09-15T04:05:20.848Z,13.22
2018-09-15T04:06:20.822Z,13.20
2018-09-15T04:07:20.813Z,13.22
2018-09-15T04:08:20.803Z,13.22
2018-09-15T04:09:20.821Z,13.22
2018-09-15T04:10:20.803Z,13.20
2018-09-15T04:11:20.759Z,13.25
2018-09-15T04:12:20.755Z,13.19
2018-09-15T04:13:20.734Z,13.19
2018-09-15T04:14:20.787Z,13.25
2018-09-15T04:15:20.707Z,13.25
2018-09-15T04:16:20.703Z,13.28
2018-09-15T04:17:20.679Z,13.19
2018-09-15T04:18:20.664Z,13.23
2018-09-15T04:19:20.660Z,13.19
2018-09-15T04:20:20.647Z,13.33
2018-09-15T04:21:20.626Z,13.26
2018-09-15T04:22:20.613Z,13.30
2018-09-15T04:23:20.600Z,13.33
2018-09-15T04:24:20.589Z,13.32
2018-09-15T04:25:20.599Z,13.32
2018-09-15T04:26:20.564Z,13.30
2018-09-15T04:27:20.605Z,13.20
2018-09-15T04:28:20.538Z,13.25
2018-09-15T04:29:20.518Z,13.20
2018-09-15T04:30:20.509Z,13.32
2018-09-15T04:31:20.500Z,13.29
2018-09-15T04:32:20.480Z,13.28
2018-09-15T04:33:20.488Z,13.30
2018-09-15T04:34:20.458Z,13.33
2018-09-15T04:35:20.496Z,13.23
2018-09-15T04:36:20.439Z,13.30
2018-09-15T04:37:20.410Z,13.29
2018-09-15T04:38:20.398Z,13.26
2018-09-15T04:39:20.391Z,13.19
2018-09-15T04:40:20.369Z,13.28
2018-09-15T04:41:20.393Z,13.19
2018-09-15T04:42:20.351Z,13.19
2018-09-15T04:43:20.334Z,13.23
2018-09-15T04:44:20.318Z,13.26
2018-09-15T04:45:20.324Z,13.20
2018-09-15T04:46:20.296Z,13.28
2018-09-15T04:47:20.283Z,13.29
2018-09-15T04:48:20.275Z,13.30
2018-09-15T04:49:20.254Z,13.33
2018-09-15T04:50:20.242Z,13.29
2018-09-15T04:51:20.221Z,13.23
2018-09-15T04:52:20.234Z,13.22
2018-09-15T04:53:20.185Z,13.22
2018-09-15T04:54:20.180Z,13.15
2018-09-15T04:55:20.165Z,13.23
2018-09-15T04:56:20.157Z,13.17
2018-09-15T04:57:20.147Z,13.15
2018-09-15T04:58:20.139Z,13.12
2018-09-15T04:59:20.113Z,13.19
2018-09-15T05:00:20.106Z,13.22
2018-09-15T05:01:20.090Z,13.23
2018-09-15T05:02:20.130Z,13.23
2018-09-15T05:03:20.070Z,13.19
2018-09-15T05:04:20.046Z,13.28
2018-09-15T05:05:20.048Z,13.28
2018-09-15T05:06:20.019Z,13.23
2018-09-15T05:07:20.003Z,13.26
2018-09-15T05:08:20.023Z,13.29
2018-09-15T05:09:19.983Z,13.29
2018-09-15T05:10:20.137Z,13.20
2018-09-15T05:11:19.943Z,13.26
2018-09-15T05:12:19.986Z,13.20
2018-09-15T05:13:19.916Z,13.19
2018-09-15T05:14:19.920Z,13.25
2018-09-15T05:15:19.904Z,13.26
2018-09-15T05:16:19.887Z,13.26
2018-09-15T05:17:19.877Z,13.28
2018-09-15T05:18:19.856Z,13.26
2018-09-15T05:19:19.885Z,13.30
2018-09-15T05:20:19.833Z,13.28
2018-09-15T05:21:19.816Z,13.29
2018-09-15T05:22:19.811Z,13.30
2018-09-15T05:23:19.788Z,13.32
2018-09-15T05:24:19.776Z,13.29
2018-09-15T05:25:19.794Z,13.41
2018-09-15T05:26:19.747Z,13.44
2018-09-15T05:27:19.735Z,13.44
2018-09-15T05:28:19.724Z,13.52
2018-09-15T05:29:19.745Z,13.54
2018-09-15T05:30:19.719Z,13.51
2018-09-15T05:31:19.686Z,13.60
2018-09-15T05:32:19.673Z,13.57
2018-09-15T05:33:19.662Z,13.60
2018-09-15T05:34:19.643Z,13.52
2018-09-15T05:35:19.651Z,13.48
2018-09-15T05:36:19.607Z,13.46
2018-09-15T05:37:19.594Z,13.52
2018-09-15T05:38:19.593Z,13.57
2018-09-15T05:39:19.575Z,13.59
2018-09-15T05:40:19.608Z,13.51
2018-09-15T05:41:19.545Z,13.45
2018-09-15T05:42:19.536Z,13.45
2018-09-15T05:43:19.828Z,13.45
2018-09-15T05:44:19.512Z,13.39
2018-09-15T05:45:19.494Z,13.41
2018-09-15T05:46:19.476Z,13.45
2018-09-15T05:47:19.469Z,13.45
2018-09-15T05:48:19.457Z,13.42
2018-09-15T05:49:19.445Z,13.45
2018-09-15T05:50:19.438Z,13.46
2018-09-15T05:51:19.426Z,13.48
2018-09-15T05:52:19.407Z,13.46
2018-09-15T05:53:19.423Z,13.38
2018-09-15T05:54:19.373Z,13.44
2018-09-15T05:55:19.386Z,13.44
2018-09-15T05:56:19.358Z,13.51
2018-09-15T05:57:19.333Z,13.54
2018-09-15T05:58:19.320Z,13.51
2018-09-15T05:59:19.308Z,13.52
2018-09-15T06:00:19.352Z,13.51
2018-09-15T06:01:19.288Z,13.49
2018-09-15T06:02:19.276Z,13.59
2018-09-15T06:03:19.257Z,13.54
2018-09-15T06:04:19.238Z,13.55
2018-09-15T06:05:19.252Z,13.55
2018-09-15T06:06:19.216Z,13.52
2018-09-15T06:07:19.197Z,13.45
2018-09-15T06:08:19.215Z,13.52
2018-09-15T06:09:19.172Z,13.57
2018-09-15T06:10:19.351Z,13.55
2018-09-15T06:11:19.152Z,13.49
2018-09-15T06:12:19.129Z,13.48
2018-09-15T06:13:19.151Z,13.57
2018-09-15T06:14:19.107Z,13.55
2018-09-15T06:15:19.101Z,13.45
2018-09-15T06:16:19.082Z,13.59
2018-09-15T06:17:19.067Z,13.60
2018-09-15T06:18:19.101Z,13.49
2018-09-15T06:19:19.049Z,13.59
2018-09-15T06:20:19.031Z,13.49
2018-09-15T06:21:19.022Z,13.55
2018-09-15T06:22:19.001Z,13.49
2018-09-15T06:23:18.994Z,13.48
2018-09-15T06:24:18.983Z,13.60
2018-09-15T06:25:18.969Z,13.48
2018-09-15T06:26:18.947Z,13.49
2018-09-15T06:27:18.927Z,13.57
2018-09-15T06:28:18.982Z,13.46
2018-09-15T06:29:18.917Z,13.45
2018-09-15T06:30:18.898Z,13.44
2018-09-15T06:31:18.885Z,13.46
2018-09-15T06:32:18.872Z,13.52
2018-09-15T06:33:18.855Z,13.51
2018-09-15T06:34:18.907Z,13.46
2018-09-15T06:35:18.834Z,13.45
2018-09-15T06:36:18.865Z,13.49
2018-09-15T06:37:18.816Z,13.52
2018-09-15T06:38:18.812Z,13.57
2018-09-15T06:39:18.808Z,13.46
2018-09-15T06:40:18.801Z,13.49
2018-09-15T06:41:18.749Z,13.57
2018-09-15T06:42:18.744Z,13.48
2018-09-15T06:43:18.726Z,13.44
2018-09-15T06:44:18.712Z,13.55
2018-09-15T06:45:18.785Z,13.49
2018-09-15T06:46:18.677Z,13.46
2018-09-15T06:47:18.668Z,13.48
2018-09-15T06:48:18.664Z,13.54
2018-09-15T06:49:18.645Z,13.49
2018-09-15T06:50:18.662Z,13.59
2018-09-15T06:51:18.656Z,13.63
2018-09-15T06:52:18.607Z,13.64
2018-09-15T06:53:18.594Z,13.60
2018-09-15T06:54:18.589Z,13.64
2018-09-15T06:55:18.634Z,13.69
2018-09-15T06:56:18.555Z,13.69
2018-09-15T06:57:18.541Z,13.67
2018-09-15T06:58:18.520Z,13.75
2018-09-15T06:59:18.522Z,13.71
2018-09-15T07:00:18.506Z,13.73
2018-09-15T07:01:18.501Z,13.77
2018-09-15T07:02:18.481Z,13.75
2018-09-15T07:03:18.454Z,13.84
2018-09-15T07:04:18.446Z,13.75
2018-09-15T07:05:18.434Z,13.78
2018-09-15T07:06:18.489Z,13.87
2018-09-15T07:07:18.408Z,13.89
2018-09-15T07:08:18.408Z,13.88
2018-09-15T07:09:18.383Z,13.91
2018-09-15T07:10:18.377Z,13.87
2018-09-15T07:11:18.371Z,13.92
2018-09-15T07:12:18.395Z,13.92
2018-09-15T07:13:18.336Z,13.97
2018-09-15T07:14:18.320Z,13.99
2018-09-15T07:15:18.307Z,14.09
2018-09-15T07:16:18.291Z,14.07
2018-09-15T07:17:18.272Z,14.17
2018-09-15T07:18:18.280Z,14.10
2018-09-15T07:19:18.249Z,14.22
2018-09-15T07:20:18.239Z,14.20
2018-09-15T07:21:18.256Z,14.20
2018-09-15T07:22:18.211Z,14.20
2018-09-15T07:23:18.207Z,14.27
2018-09-15T07:24:18.227Z,14.32
2018-09-15T07:25:18.184Z,14.32
2018-09-15T07:26:18.226Z,14.29
2018-09-15T07:27:18.153Z,14.32
2018-09-15T07:28:18.144Z,14.36
2018-09-15T07:29:18.125Z,14.29
2018-09-15T07:30:18.114Z,14.36
2018-09-15T07:31:18.102Z,14.39
2018-09-15T07:32:18.120Z,14.39
2018-09-15T07:33:18.076Z,14.32
2018-09-15T07:34:18.065Z,14.50
2018-09-15T07:35:18.051Z,14.43
2018-09-15T07:36:18.043Z,14.50
2018-09-15T07:37:18.057Z,14.46
2018-09-15T07:38:18.022Z,14.57
2018-09-15T07:39:18.004Z,14.51
2018-09-15T07:40:17.984Z,14.54
2018-09-15T07:41:17.969Z,14.65
2018-09-15T07:42:17.988Z,14.62
2018-09-15T07:43:17.950Z,14.57
2018-09-15T07:44:17.934Z,14.65
2018-09-15T07:45:17.928Z,14.69
2018-09-15T07:46:17.922Z,14.62
2018-09-15T07:47:17.926Z,14.72
2018-09-15T07:48:17.892Z,14.88
2018-09-15T07:49:17.879Z,14.81
2018-09-15T07:50:17.871Z,14.96
2018-09-15T07:51:17.851Z,14.94
2018-09-15T07:52:17.844Z,15.03
2018-09-15T07:53:17.895Z,15.06
2018-09-15T07:54:17.811Z,15.09
2018-09-15T07:55:17.807Z,15.01
2018-09-15T07:56:17.792Z,15.17
2018-09-15T07:57:17.857Z,15.25
2018-09-15T07:58:17.774Z,15.49
2018-09-15T07:59:17.782Z,15.54
2018-09-15T08:00:17.740Z,15.67
2018-09-15T08:01:17.735Z,15.62
2018-09-15T08:02:17.726Z,15.64
2018-09-15T08:03:17.710Z,15.71
2018-09-15T08:04:17.723Z,15.67
2018-09-15T08:05:17.682Z,15.75
2018-09-15T08:06:17.679Z,15.68
2018-09-15T08:07:17.659Z,15.67
2018-09-15T08:08:17.652Z,15.65
2018-09-15T08:09:17.668Z,15.71
2018-09-15T08:10:17.652Z,15.67
2018-09-15T08:11:17.614Z,15.67
2018-09-15T08:12:17.606Z,15.64
2018-09-15T08:13:17.615Z,15.62
2018-09-15T08:14:17.576Z,15.62
2018-09-15T08:15:17.576Z,15.64
2018-09-15T08:16:17.565Z,15.71
2018-09-15T08:17:17.556Z,15.67
2018-09-15T08:18:17.533Z,15.64
2018-09-15T08:19:17.533Z,15.68
2018-09-15T08:20:17.548Z,15.65
2018-09-15T08:21:17.507Z,15.59
2018-09-15T08:22:17.490Z,15.62
2018-09-15T08:23:17.486Z,15.78
2018-09-15T08:24:17.466Z,15.74
2018-09-15T08:25:17.462Z,15.83
2018-09-15T08:26:17.504Z,15.78
2018-09-15T08:27:17.443Z,15.83
2018-09-15T08:28:17.427Z,15.76
2018-09-15T08:29:17.413Z,15.87
2018-09-15T08:30:17.431Z,15.87
2018-09-15T08:31:17.389Z,16.00
2018-09-15T08:32:17.387Z,16.04
2018-09-15T08:33:17.353Z,16.04
2018-09-15T08:34:17.352Z,16.11
2018-09-15T08:35:17.414Z,16.14
2018-09-15T08:36:17.338Z,16.17
2018-09-15T08:37:17.344Z,16.27
2018-09-15T08:38:17.321Z,16.33
2018-09-15T08:39:17.288Z,16.30
2018-09-15T08:40:17.289Z,16.35
2018-09-15T08:41:17.322Z,16.42
2018-09-15T08:42:17.264Z,16.48
2018-09-15T08:43:17.254Z,16.52
2018-09-15T08:44:17.253Z,16.48
2018-09-15T08:45:17.230Z,16.50
2018-09-15T08:46:17.225Z,16.53
2018-09-15T08:47:17.219Z,16.66
2018-09-15T08:48:17.460Z,16.67
2018-09-15T08:49:17.189Z,16.70
2018-09-15T08:50:17.184Z,16.71
2018-09-15T08:51:17.165Z,16.75
2018-09-15T08:52:17.154Z,16.66
2018-09-15T08:53:17.138Z,16.71
2018-09-15T08:54:17.188Z,16.68
2018-09-15T08:55:17.113Z,16.75
2018-09-15T08:56:17.142Z,16.76
2018-09-15T08:57:17.101Z,16.73
2018-09-15T08:58:17.095Z,16.71
2018-09-15T08:59:17.066Z,16.60
2018-09-15T09:00:17.077Z,16.56
2018-09-15T09:01:17.058Z,16.58
2018-09-15T09:02:17.036Z,16.58
2018-09-15T09:03:17.024Z,16.53
2018-09-15T09:04:17.017Z,16.58
2018-09-15T09:05:17.046Z,16.52
2018-09-15T09:06:17.004Z,16.60
2018-09-15T09:07:16.988Z,16.57
2018-09-15T09:08:16.978Z,16.57
2018-09-15T09:09:16.967Z,16.50
2018-09-15T09:10:17.066Z,16.42
2018-09-15T09:11:16.943Z,16.39
2018-09-15T09:12:16.930Z,16.39
2018-09-15T09:13:16.921Z,16.42
2018-09-15T09:14:16.940Z,16.53
2018-09-15T09:15:16.891Z,16.42
2018-09-15T09:16:16.892Z,16.49
2018-09-15T09:17:16.887Z,16.48
2018-09-15T09:18:16.865Z,16.46
2018-09-15T09:19:16.874Z,16.52
2018-09-15T09:20:16.843Z,16.48
2018-09-15T09:21:16.830Z,16.42
2018-09-15T09:22:16.814Z,16.39
2018-09-15T09:23:16.811Z,16.35
2018-09-15T09:24:16.808Z,16.39
2018-09-15T09:25:16.776Z,16.50
2018-09-15T09:26:16.866Z,16.53
2018-09-15T09:27:16.761Z,16.50
2018-09-15T09:28:16.754Z,16.58
2018-09-15T09:29:16.784Z,16.68
2018-09-15T09:30:16.737Z,16.68
2018-09-15T09:31:16.753Z,16.67
2018-09-15T09:32:16.991Z,16.70
2018-09-15T09:33:16.709Z,16.70
2018-09-15T09:34:16.693Z,16.68
2018-09-15T09:35:16.688Z,16.75
2018-09-15T09:36:16.652Z,16.79
2018-09-15T09:37:16.683Z,16.89
2018-09-15T09:38:16.706Z,16.83
2018-09-15T09:39:16.636Z,16.85
2018-09-15T09:40:16.613Z,16.85
2018-09-15T09:41:16.677Z,16.83
2018-09-15T09:42:16.628Z,16.89
2018-09-15T09:43:16.596Z,16.96
2018-09-15T09:44:16.577Z,16.97
2018-09-15T09:45:16.567Z,16.86
2018-09-15T09:46:16.556Z,16.94
2018-09-15T09:47:16.619Z,17.00
2018-09-15T09:48:16.536Z,17.08
2018-09-15T09:49:16.521Z,17.03
2018-09-15T09:50:16.514Z,17.11
2018-09-15T09:51:16.504Z,17.16
2018-09-15T09:52:16.497Z,17.15
2018-09-15T09:53:16.515Z,17.08
2018-09-15T09:54:16.466Z,17.11
2018-09-15T09:55:16.453Z,17.14
2018-09-15T09:56:16.440Z,17.23
2018-09-15T09:57:16.484Z,17.31
2018-09-15T09:58:16.424Z,17.30
2018-09-15T09:59:16.426Z,17.23
2018-09-15T10:00:16.410Z,17.25
2018-09-15T10:01:16.417Z,17.26
2018-09-15T10:02:16.384Z,17.33
2018-09-15T10:03:16.399Z,17.44
2018-09-15T10:04:16.367Z,17.38
2018-09-15T10:05:16.351Z,17.44
2018-09-15T10:06:16.337Z,17.49
2018-09-15T10:07:16.341Z,17.52
2018-09-15T10:08:16.484Z,17.58
2018-09-15T10:09:16.306Z,17.70
2018-09-15T10:10:16.495Z,17.74
2018-09-15T10:11:16.292Z,17.79
2018-09-15T10:12:16.288Z,17.70
2018-09-15T10:13:16.280Z,17.71
2018-09-15T10:14:16.277Z,17.62
2018-09-15T10:15:16.248Z,17.75
2018-09-15T10:16:16.321Z,17.84
2018-09-15T10:17:16.233Z,17.87
2018-09-15T10:18:16.226Z,17.87
2018-09-15T10:19:16.484Z,17.93
2018-09-15T10:20:16.209Z,17.87
2018-09-15T10:21:16.196Z,17.86
2018-09-15T10:22:16.189Z,17.87
2018-09-15T10:23:16.165Z,17.97
2018-09-15T10:24:16.161Z,18.00
2018-09-15T10:25:16.182Z,17.95
2018-09-15T10:26:16.138Z,17.86
2018-09-15T10:27:16.126Z,17.95
2018-09-15T10:28:16.119Z,17.97
2018-09-15T10:29:16.111Z,17.93
2018-09-15T10:30:16.164Z,17.97
2018-09-15T10:31:16.089Z,17.95
2018-09-15T10:32:16.081Z,18.03
2018-09-15T10:33:16.074Z,18.03
2018-09-15T10:34:16.064Z,18.05
2018-09-15T10:35:16.054Z,17.99
2018-09-15T10:36:16.054Z,17.97
2018-09-15T10:37:16.112Z,18.03
2018-09-15T10:38:16.036Z,17.95
2018-09-15T10:39:16.021Z,17.93
2018-09-15T10:40:16.069Z,17.92
2018-09-15T10:41:16.000Z,17.95
2018-09-15T10:42:15.996Z,17.93
2018-09-15T10:43:16.014Z,17.78
2018-09-15T10:44:15.966Z,17.75
2018-09-15T10:45:15.960Z,17.72
2018-09-15T10:46:15.945Z,17.70
2018-09-15T10:47:15.937Z,17.79
2018-09-15T10:48:16.200Z,17.74
2018-09-15T10:49:15.909Z,17.77
2018-09-15T10:50:15.907Z,17.71
2018-09-15T10:51:15.888Z,17.68
2018-09-15T10:52:15.909Z,17.75
2018-09-15T10:53:15.877Z,17.74
2018-09-15T10:54:15.867Z,17.70
2018-09-15T10:55:15.858Z,17.72
2018-09-15T10:56:15.841Z,17.79
2018-09-15T10:57:15.855Z,17.71
2018-09-15T10:58:15.826Z,17.75
2018-09-15T10:59:15.806Z,17.71
2018-09-15T11:00:15.886Z,17.66
2018-09-15T11:01:15.787Z,17.71
2018-09-15T11:02:15.777Z,17.66
2018-09-15T11:03:15.764Z,17.62
2018-09-15T11:04:15.767Z,17.66
2018-09-15T11:05:15.743Z,17.72
2018-09-15T11:06:15.746Z,17.70
2018-09-15T11:07:15.785Z,17.52
2018-09-15T11:08:15.726Z,17.59
2018-09-15T11:09:15.708Z,17.55
2018-09-15T11:10:15.706Z,17.56
2018-09-15T11:11:15.689Z,17.54
2018-09-15T11:12:15.684Z,17.58
2018-09-15T11:13:15.753Z,17.58
2018-09-15T11:14:15.666Z,17.62
2018-09-15T11:15:15.647Z,17.62
2018-09-15T11:16:15.629Z,17.52
2018-09-15T11:17:15.662Z,17.66
2018-09-15T11:18:15.685Z,17.51
2018-09-15T11:19:15.604Z,17.59
2018-09-15T11:20:15.602Z,17.52
2018-09-15T11:21:15.591Z,17.56
2018-09-15T11:22:15.582Z,17.48
2018-09-15T11:23:15.564Z,17.49
2018-09-15T11:24:15.558Z,17.58
2018-09-15T11:25:15.574Z,17.59
2018-09-15T11:26:15.529Z,17.71
2018-09-15T11:27:15.527Z,17.74
2018-09-15T11:28:15.505Z,17.75
2018-09-15T11:29:15.510Z,17.84
2018-09-15T11:30:15.776Z,17.95
2018-09-15T11:31:15.488Z,17.92
2018-09-15T11:32:15.464Z,18.03
2018-09-15T11:33:15.462Z,18.15
2018-09-15T11:34:15.521Z,18.14
2018-09-15T11:35:15.441Z,18.07
2018-09-15T11:36:15.433Z,18.18
2018-09-15T11:37:15.415Z,18.18
2018-09-15T11:38:15.423Z,18.17
2018-09-15T11:39:15.400Z,18.10
2018-09-15T11:40:15.396Z,18.11
2018-09-15T11:41:15.477Z,17.97
2018-09-15T11:42:15.403Z,17.96
2018-09-15T11:43:15.365Z,17.87
2018-09-15T11:44:15.349Z,17.96
2018-09-15T11:45:15.348Z,17.90
2018-09-15T11:46:15.326Z,18.03
2018-09-15T11:47:15.348Z,18.07
2018-09-15T11:48:15.314Z,18.07
2018-09-15T11:49:15.298Z,18.00
2018-09-15T11:50:15.289Z,18.10
2018-09-15T11:51:15.279Z,18.21
2018-09-15T11:52:15.302Z,18.17
2018-09-15T11:53:15.255Z,18.20
2018-09-15T11:54:15.284Z,18.29
2018-09-15T11:55:15.254Z,18.27
2018-09-15T11:56:15.237Z,18.32
2018-09-15T11:57:15.262Z,18.39
2018-09-15T11:58:15.215Z,18.36
2018-09-15T11:59:15.208Z,18.47
2018-09-15T12:00:15.248Z,18.48
2018-09-15T12:01:15.192Z,18.57
2018-09-15T12:02:15.180Z,18.58
2018-09-15T12:03:15.171Z,18.54
2018-09-15T12:04:15.156Z,18.66
2018-09-15T12:05:15.154Z,18.75
2018-09-15T12:06:15.136Z,18.81
2018-09-15T12:07:15.162Z,18.78
2018-09-15T12:08:15.118Z,18.94
2018-09-15T12:09:15.114Z,18.98
2018-09-15T12:10:15.104Z,19.02
2018-09-15T12:11:15.090Z,19.11
2018-09-15T12:12:15.120Z,19.06
2018-09-15T12:13:15.071Z,19.13
2018-09-15T12:14:15.121Z,19.22
2018-09-15T12:15:15.057Z,19.32
2018-09-15T12:16:15.037Z,19.44
2018-09-15T12:17:15.067Z,19.44
2018-09-15T12:18:15.032Z,19.39
2018-09-15T12:19:15.049Z,19.39
2018-09-15T12:20:15.008Z,19.39
2018-09-15T12:21:15.009Z,19.32
2018-09-15T12:22:15.025Z,19.28
2018-09-15T12:23:14.987Z,19.16
2018-09-15T12:24:14.977Z,19.18
2018-09-15T12:25:14.963Z,19.10
2018-09-15T12:26:14.947Z,19.13
2018-09-15T12:27:14.970Z,19.06
2018-09-15T12:28:14.946Z,19.00
2018-09-15T12:29:14.950Z,18.94
2018-09-15T12:30:14.919Z,18.87
2018-09-15T12:31:14.910Z,18.92
2018-09-15T12:32:14.897Z,18.82
2018-09-15T12:33:14.896Z,18.75
2018-09-15T12:34:15.046Z,18.65
2018-09-15T12:35:14.877Z,18.72
2018-09-15T12:36:14.866Z,18.57
2018-09-15T12:37:14.866Z,18.47
2018-09-15T12:38:14.851Z,18.48
2018-09-15T12:39:14.874Z,18.50
2018-09-15T12:40:14.868Z,18.47
2018-09-15T12:41:14.808Z,18.48
2018-09-15T12:42:14.812Z,18.42
2018-09-15T12:43:14.795Z,18.48
2018-09-15T12:44:14.844Z,18.50
2018-09-15T12:45:14.878Z,18.37
2018-09-15T12:46:14.757Z,18.37
2018-09-15T12:47:14.761Z,18.37
2018-09-15T12:48:14.748Z,18.36
2018-09-15T12:49:14.736Z,18.42
2018-09-15T12:50:14.743Z,18.29
2018-09-15T12:51:14.722Z,18.36
2018-09-15T12:52:14.758Z,18.26